Chicago, IL

2:49 PM CST on February 28, 2015 (GMT -0600)
West Loop - Old St. Pats | Change Station
CLOSE
Current Station
Personal Weather Station
Location: Chicago, IL
Elevation: 548 ft
Nearby Weather Stations

Elev 548 ft 41.88 °N, 87.64 °W | Updated 30 seconds ago

Clear
Clear
25.6 °F
Feels Like 26 °F
N
1.0
Wind Variable Wind from East
Gusts 4.0 mph

Today
High -- | Low -- °F
--% Chance of Precip.
Yesterday
High -- | Low -- °F
Precip. -- in
6:27 AM 5:39 PM
Waxing Gibbous, 80% visible
Pressure 30.68 in
Visibility 10.0 miles
Clouds Few 25000 ft
Windchill 26 °F
Dew Point 7 °F
Humidity 45%
Rainfall 0.00 in
Snow Depth Not available.
UV 4 out of 12
Pollen .50 out of 12
Air Quality Not available.
Flu Activity Not available.
METAR KMDW 281953Z 18004KT 10SM FEW250 M06/M17 A3061 RMK AO2 SLP387 T10561172

More Conditions Fewer Conditions

Pressure 30.68 in
Visibility 10.0 miles
Clouds Few 25000 ft
Windchill 26 °F
Dew Point 7 °F
Humidity 45%
Rainfall 0.00 in
Snow Depth Not available.
UV 4 out of 12
Pollen .50 out of 12
Air Quality Not available.
Flu Activity Not available.
METAR KMDW 281953Z 18004KT 10SM FEW250 M06/M17 A3061 RMK AO2 SLP387 T10561172

More Conditions Fewer Conditions

10-Day Weather Forecast

Almanac

Astronomy

Feb. 28, 2015 Rise Set
Actual Time
Civil Twilight
Nautical Twilight
Astronomical Twilight
Moon
Length of Visible Light
Length of Day
Tomorrow will be .
, % of the Moon is Illuminated

Today's Extremes

State Highs State Lows

Community

WunderPhotos

Upload Photos

1,801,145 photos uploaded!

WunderBlogs® & News

Nearby

Air Quality

  Air Quality AQ Index Pollutant
Not available.

Snow Depth

Station Depth Elevation

Earthquake Activity

City Distance Mag. Time & Date
Minimum magnitude displayed is 2.5.

Coastal Water Temperatures

Place Temperature

Nearby Weather Stations

Special Statement
Statement as of 1:03 PM EST on February 28, 2015

... Period of light snow this evening through Sunday afternoon...

Snow will overspread northern Illinois and Northwest Indiana
starting this evening with a dusting up to an inch of snow likely
along and north of Interstate 88... and 1 to 2 inches south by
around midnight tonight. Snow will continue along and south of
Interstate 80 overnight into Sunday afternoon while the snow
diminishes farther north. Through Sunday afternoon... total
snowfall is expected to range from a dusting up to 2 inches north
of the I-80 corridor with 2 to 5 inches south. However... southern
portions of Ford... Iroquois... and Benton counties may see
isolated amounts near 6 inches.


Rodriguez

Visit US at http://weather.Gov/Chicago (all lowercase)

Follow US on facebook... twitter... and youtube at:
www.Facebook.Com/nwschicago.Gov
www.Twitter.Com/nwschicago
www.Youtube.Com/nwschicago